Time;durP1;ratioP1;P1;durP2;ratioP2;P2;SDS_P1;SDS_P2;PMS_P1;PMS_P2;Temp;Humidity;BMP_temperature;BMP_pressure;BME280_temperature;BME280_humidity;BME280_pressure;Samples;Min_cycle;Max_cycle;Signal;HPM_P1;HPM_P2
2022/10/13 00:00:43;;;;;;;6.68;3.92;;;12.30;99.90;;;;;;5019159;28;20383;-73
2022/10/13 00:03:09;;;;;;;7.13;3.83;;;12.20;99.90;;;;;;5028240;28;20304;-73
2022/10/13 00:05:43;;;;;;;4.35;3.70;;;12.30;99.90;;;;;;5031831;28;20269;-71
2022/10/13 00:08:09;;;;;;;8.02;3.63;;;12.20;99.90;;;;;;5023891;28;20277;-73
2022/10/13 00:10:37;;;;;;;6.00;4.15;;;12.20;99.90;;;;;;5020660;28;20184;-73
2022/10/13 00:13:04;;;;;;;5.75;3.80;;;12.20;99.90;;;;;;5032318;28;20248;-72
2022/10/13 00:15:36;;;;;;;5.22;4.13;;;12.20;99.90;;;;;;5042923;28;20216;-73
2022/10/13 00:18:03;;;;;;;5.95;4.22;;;12.20;99.90;;;;;;5034059;28;20170;-73
2022/10/13 00:20:34;;;;;;;5.35;4.15;;;12.20;99.90;;;;;;5031992;28;20190;-72
2022/10/13 00:22:59;;;;;;;5.50;3.90;;;12.20;99.90;;;;;;5034432;28;20283;-73
2022/10/13 00:25:27;;;;;;;6.65;3.97;;;12.20;99.90;;;;;;5031537;28;20171;-73
2022/10/13 00:27:53;;;;;;;6.45;4.05;;;12.20;99.90;;;;;;5032518;28;20193;-73
2022/10/13 00:30:23;;;;;;;5.60;4.30;;;12.20;99.90;;;;;;5019775;28;20453;-73
2022/10/13 00:32:49;;;;;;;5.10;4.07;;;12.20;99.90;;;;;;5033847;28;20193;-73
2022/10/13 00:35:15;;;;;;;6.68;4.30;;;12.20;99.90;;;;;;5028164;28;20170;-73
2022/10/13 00:37:40;;;;;;;6.30;4.50;;;12.20;99.90;;;;;;5022643;28;20202;-71
2022/10/13 00:40:08;;;;;;;6.32;4.50;;;12.20;99.90;;;;;;5025539;28;20177;-73
2022/10/13 00:42:40;;;;;;;7.13;4.72;;;12.20;99.90;;;;;;5031839;28;20178;-73
2022/10/13 00:45:22;;;;;;;7.15;4.55;;;12.30;99.90;;;;;;5036291;28;20206;-73
2022/10/13 00:47:54;;;;;;;6.13;4.28;;;12.30;99.90;;;;;;5031476;28;20177;-73
2022/10/13 00:50:28;;;;;;;7.68;4.63;;;12.30;99.90;;;;;;5033276;28;20177;-72
2022/10/13 00:52:56;;;;;;;8.88;5.38;;;12.30;99.90;;;;;;5025383;28;20212;-73
2022/10/13 00:55:25;;;;;;;7.60;4.28;;;12.30;99.90;;;;;;5033259;28;20240;-72
2022/10/13 00:57:57;;;;;;;8.55;5.05;;;12.30;99.90;;;;;;5032373;28;20198;-73
2022/10/13 01:00:23;;;;;;;7.38;5.28;;;12.30;99.90;;;;;;5048877;28;20395;-73
2022/10/13 01:02:49;;;;;;;7.22;4.95;;;12.30;99.90;;;;;;5033138;28;20201;-73
2022/10/13 01:05:16;;;;;;;6.18;4.57;;;12.40;99.90;;;;;;5023884;28;20189;-72
2022/10/13 01:07:47;;;;;;;7.10;4.80;;;12.40;99.90;;;;;;5023011;28;20199;-73
2022/10/13 01:10:23;;;;;;;6.68;4.88;;;12.40;99.90;;;;;;5020935;28;20167;-72
2022/10/13 01:13:02;;;;;;;9.35;5.13;;;12.40;99.90;;;;;;5019711;28;20224;-72
2022/10/13 01:15:31;;;;;;;8.23;5.40;;;12.40;99.90;;;;;;5018343;28;20262;-72
2022/10/13 01:18:21;;;;;;;7.45;4.72;;;12.50;99.90;;;;;;5034421;28;20240;-73
2022/10/13 01:21:11;;;;;;;8.73;4.57;;;12.50;99.90;;;;;;5033413;28;20241;-73
2022/10/13 01:24:21;;;;;;;6.82;4.82;;;12.50;99.90;;;;;;5028518;28;20205;-72
2022/10/13 01:27:11;;;;;;;6.45;4.68;;;12.50;99.90;;;;;;5010236;28;20262;-72
2022/10/13 01:30:04;;;;;;;7.03;5.18;;;12.60;99.90;;;;;;5000034;28;20210;-74
2022/10/13 01:32:48;;;;;;;8.88;4.88;;;12.60;99.90;;;;;;5032238;28;20205;-73
2022/10/13 01:35:31;;;;;;;8.63;4.90;;;12.60;99.90;;;;;;5037336;28;20264;-76
2022/10/13 01:38:25;;;;;;;6.97;4.75;;;12.60;99.90;;;;;;5037350;28;20210;-73
2022/10/13 01:41:15;;;;;;;9.15;5.15;;;12.60;99.90;;;;;;5024381;28;20277;-72
2022/10/13 01:44:11;;;;;;;8.45;4.82;;;12.60;99.90;;;;;;5018833;28;20207;-73
2022/10/13 01:46:38;;;;;;;7.15;5.28;;;12.60;99.90;;;;;;5028779;28;20178;-72
2022/10/13 01:49:09;;;;;;;6.30;4.80;;;12.60;99.90;;;;;;5036734;28;20197;-74
2022/10/13 01:51:35;;;;;;;6.68;4.35;;;12.60;99.90;;;;;;5046498;28;20198;-72
2022/10/13 01:54:03;;;;;;;7.75;5.10;;;12.60;99.90;;;;;;5035848;28;20183;-73
2022/10/13 01:56:29;;;;;;;8.55;5.50;;;12.60;99.90;;;;;;5031422;28;20175;-73
2022/10/13 01:59:01;;;;;;;7.10;4.88;;;12.60;99.90;;;;;;5029099;28;20204;-73
2022/10/13 02:02:04;;;;;;;8.52;5.45;;;12.60;99.90;;;;;;5036546;28;20186;-72
2022/10/13 02:04:30;;;;;;;8.23;5.15;;;12.60;99.90;;;;;;5033291;28;20288;-73
2022/10/13 02:06:58;;;;;;;8.48;5.10;;;12.60;99.90;;;;;;5017097;28;20336;-72
2022/10/13 02:09:51;;;;;;;8.20;5.15;;;12.60;99.90;;;;;;5053133;28;20177;-72
2022/10/13 02:12:38;;;;;;;7.88;5.25;;;12.60;99.90;;;;;;5026561;28;20186;-72
2022/10/13 02:15:07;;;;;;;8.18;5.20;;;12.60;99.90;;;;;;5040078;28;20217;-71
2022/10/13 02:17:41;;;;;;;7.93;5.30;;;12.60;99.90;;;;;;5036698;28;20181;-73
2022/10/13 02:20:08;;;;;;;9.00;5.18;;;12.60;99.90;;;;;;5017388;28;20171;-73
2022/10/13 02:22:39;;;;;;;9.43;5.07;;;12.60;99.90;;;;;;5031012;28;20178;-73
2022/10/13 02:25:08;;;;;;;8.23;5.20;;;12.60;99.90;;;;;;5036125;28;20220;-73
2022/10/13 02:27:36;;;;;;;9.70;4.97;;;12.60;99.90;;;;;;5036524;28;20174;-73
2022/10/13 02:30:05;;;;;;;7.95;5.20;;;12.60;99.90;;;;;;5035561;28;20182;-73
2022/10/13 02:32:31;;;;;;;8.55;5.57;;;12.60;99.90;;;;;;5019931;28;20189;-74
2022/10/13 02:34:59;;;;;;;8.52;5.35;;;12.60;99.90;;;;;;5027526;28;20452;-73
2022/10/13 02:37:24;;;;;;;6.38;5.05;;;12.60;99.90;;;;;;5034948;28;20178;-73
2022/10/13 02:39:53;;;;;;;7.28;5.28;;;12.60;99.90;;;;;;5033541;28;20193;-71
2022/10/13 02:42:18;;;;;;;7.88;5.20;;;12.60;99.90;;;;;;5027183;28;20186;-73
2022/10/13 02:44:44;;;;;;;7.57;5.13;;;12.60;99.90;;;;;;5029299;28;20304;-73
2022/10/13 02:47:12;;;;;;;7.40;5.07;;;12.60;99.90;;;;;;5032476;28;20253;-73
2022/10/13 02:49:37;;;;;;;7.43;5.10;;;12.60;99.90;;;;;;5036314;28;20181;-73
2022/10/13 02:52:03;;;;;;;7.13;4.60;;;12.60;99.90;;;;;;5024744;28;20178;-73
2022/10/13 02:54:31;;;;;;;7.47;4.85;;;12.60;99.90;;;;;;5016624;28;20206;-73
2022/10/13 02:56:56;;;;;;;7.03;4.97;;;12.60;99.90;;;;;;5035410;28;20269;-74
2022/10/13 02:59:22;;;;;;;8.00;5.05;;;12.60;99.90;;;;;;5035895;28;20376;-73
2022/10/13 03:01:50;;;;;;;7.70;5.15;;;12.60;99.90;;;;;;5035448;28;20198;-72
2022/10/13 03:04:16;;;;;;;7.50;5.03;;;12.60;99.90;;;;;;5031875;28;20204;-73
2022/10/13 03:06:44;;;;;;;7.55;4.65;;;12.60;99.90;;;;;;5031114;28;20222;-72
2022/10/13 03:09:12;;;;;;;7.70;5.20;;;12.60;99.90;;;;;;5033626;28;20175;-73
2022/10/13 03:11:37;;;;;;;6.85;4.78;;;12.50;99.90;;;;;;5036093;28;20230;-73
2022/10/13 03:14:03;;;;;;;8.48;5.00;;;12.60;99.90;;;;;;5030037;28;20228;-72
2022/10/13 03:16:31;;;;;;;7.85;5.03;;;12.50;99.90;;;;;;5033568;28;20228;-73
2022/10/13 03:18:58;;;;;;;6.38;4.32;;;12.60;99.90;;;;;;5035607;28;20185;-72
2022/10/13 03:21:24;;;;;;;7.95;4.47;;;12.50;99.90;;;;;;5035327;28;20201;-72
2022/10/13 03:23:52;;;;;;;7.30;4.53;;;12.50;99.90;;;;;;5032362;28;20198;-73
2022/10/13 03:26:18;;;;;;;7.25;4.93;;;12.60;99.90;;;;;;5027163;28;20178;-70
2022/10/13 03:28:50;;;;;;;6.40;4.28;;;12.50;99.90;;;;;;5026347;28;20198;-72
2022/10/13 03:31:17;;;;;;;8.75;4.68;;;12.50;99.90;;;;;;5034973;28;20205;-73
2022/10/13 03:33:49;;;;;;;9.40;5.38;;;12.50;99.90;;;;;;5035756;28;20193;-72
2022/10/13 03:36:15;;;;;;;10.32;7.20;;;12.50;99.90;;;;;;5035212;28;20290;-72
2022/10/13 03:38:42;;;;;;;10.07;6.60;;;12.60;99.90;;;;;;5034926;28;20178;-72
2022/10/13 03:41:14;;;;;;;9.43;6.10;;;12.50;99.90;;;;;;5035425;28;20339;-74
2022/10/13 03:43:43;;;;;;;9.00;6.15;;;12.50;99.90;;;;;;5033813;28;20236;-74
2022/10/13 03:46:16;;;;;;;8.15;6.22;;;12.50;99.90;;;;;;5016319;28;20175;-74
2022/10/13 03:48:42;;;;;;;9.75;6.70;;;12.50;99.90;;;;;;5018544;28;20181;-74
2022/10/13 03:51:15;;;;;;;9.85;6.45;;;12.50;99.90;;;;;;5035046;28;20176;-74
2022/10/13 03:53:40;;;;;;;7.40;5.47;;;12.50;99.90;;;;;;5033059;28;20181;-74
2022/10/13 03:56:06;;;;;;;7.95;5.65;;;12.50;99.90;;;;;;5034950;28;20190;-75
2022/10/13 03:58:33;;;;;;;8.82;5.70;;;12.50;99.90;;;;;;5039418;28;20188;-74
2022/10/13 04:01:04;;;;;;;9.73;6.85;;;12.40;99.90;;;;;;5034753;28;20212;-73
2022/10/13 04:03:30;;;;;;;10.05;7.07;;;12.50;99.90;;;;;;5035012;28;20237;-74
2022/10/13 04:06:02;;;;;;;9.20;6.63;;;12.40;99.90;;;;;;5035238;28;20262;-75
2022/10/13 04:08:29;;;;;;;8.10;6.25;;;12.50;99.90;;;;;;5034552;28;20174;-74
2022/10/13 04:11:06;;;;;;;7.28;5.47;;;12.50;99.90;;;;;;5034337;28;20169;-75
2022/10/13 04:13:32;;;;;;;7.43;5.15;;;12.50;99.90;;;;;;5034820;28;20197;-74
2022/10/13 04:16:03;;;;;;;8.00;5.28;;;12.50;99.90;;;;;;5033784;28;20209;-74
2022/10/13 04:18:29;;;;;;;8.00;5.22;;;12.50;99.90;;;;;;5034327;28;20189;-74
2022/10/13 04:20:54;;;;;;;8.05;5.28;;;12.50;99.90;;;;;;5033615;28;20174;-74
2022/10/13 04:23:22;;;;;;;6.68;5.30;;;12.50;99.90;;;;;;5034580;28;20193;-74
2022/10/13 04:25:50;;;;;;;7.30;5.63;;;12.50;99.90;;;;;;5026655;28;20182;-74
2022/10/13 04:28:18;;;;;;;8.38;5.60;;;12.50;99.90;;;;;;5023520;28;20179;-74
2022/10/13 04:30:49;;;;;;;7.03;5.25;;;12.60;99.90;;;;;;5024445;28;20266;-74
2022/10/13 04:33:17;;;;;;;9.00;5.82;;;12.50;99.90;;;;;;5015400;28;20179;-74
2022/10/13 04:35:42;;;;;;;7.82;5.47;;;12.60;99.90;;;;;;5025067;28;20185;-72
2022/10/13 04:38:08;;;;;;;10.07;5.40;;;12.60;99.90;;;;;;5014986;28;20175;-71
2022/10/13 04:40:36;;;;;;;8.07;5.18;;;12.60;99.90;;;;;;5034038;28;20186;-73
2022/10/13 04:43:04;;;;;;;6.25;5.15;;;12.60;99.90;;;;;;5028128;28;20259;-72
2022/10/13 04:45:32;;;;;;;7.65;5.78;;;12.60;99.90;;;;;;5035868;28;20173;-73
2022/10/13 04:47:59;;;;;;;6.60;4.97;;;12.60;99.90;;;;;;5034061;28;20197;-74
2022/10/13 04:50:27;;;;;;;8.35;5.97;;;12.70;99.90;;;;;;5034102;28;20252;-73
2022/10/13 04:52:55;;;;;;;7.57;5.80;;;12.60;99.90;;;;;;5034601;28;20195;-71
2022/10/13 04:55:23;;;;;;;9.80;6.60;;;12.50;99.90;;;;;;5031290;28;20214;-74
2022/10/13 04:57:49;;;;;;;7.53;5.80;;;12.60;99.90;;;;;;5032017;28;20265;-73
2022/10/13 05:00:17;;;;;;;6.70;5.03;;;12.60;99.90;;;;;;5032454;28;20260;-74
2022/10/13 05:02:43;;;;;;;6.53;4.82;;;12.60;99.90;;;;;;5032784;28;20209;-72
2022/10/13 05:05:09;;;;;;;8.70;5.13;;;12.60;99.90;;;;;;5017207;28;20484;-73
2022/10/13 05:07:34;;;;;;;7.00;4.72;;;12.60;99.90;;;;;;5051311;28;20185;-75
2022/10/13 05:10:00;;;;;;;7.25;4.68;;;12.60;99.90;;;;;;5031514;28;20174;-76
2022/10/13 05:12:26;;;;;;;7.18;4.32;;;12.60;99.90;;;;;;5045028;28;20260;-76
2022/10/13 05:14:52;;;;;;;6.10;4.45;;;12.60;99.90;;;;;;5037371;28;20181;-72
2022/10/13 05:17:18;;;;;;;9.65;4.22;;;12.60;99.90;;;;;;5016640;28;20179;-72
2022/10/13 05:19:47;;;;;;;7.07;4.50;;;12.60;99.90;;;;;;5037134;28;20240;-74
2022/10/13 05:22:17;;;;;;;7.32;4.70;;;12.60;99.90;;;;;;5029707;28;20210;-73
2022/10/13 05:24:43;;;;;;;6.93;4.72;;;12.60;99.90;;;;;;5026842;28;20353;-72
2022/10/13 05:27:13;;;;;;;6.35;4.57;;;12.70;99.90;;;;;;5044097;28;20333;-71
2022/10/13 05:29:39;;;;;;;5.57;3.90;;;12.70;99.90;;;;;;5023499;28;20178;-71
2022/10/13 05:32:08;;;;;;;5.43;3.92;;;12.70;99.90;;;;;;5043007;28;20193;-70
2022/10/13 05:34:33;;;;;;;5.95;4.38;;;12.80;99.90;;;;;;5034801;28;20206;-72
2022/10/13 05:37:02;;;;;;;6.82;4.45;;;12.80;99.90;;;;;;5053699;28;20169;-71
2022/10/13 05:39:27;;;;;;;6.63;4.72;;;12.80;99.90;;;;;;5053715;28;20181;-72
2022/10/13 05:41:53;;;;;;;7.03;4.75;;;12.80;99.90;;;;;;5044913;28;20182;-72
2022/10/13 05:44:23;;;;;;;8.20;4.65;;;12.80;99.90;;;;;;5033695;28;20276;-70
2022/10/13 05:46:49;;;;;;;8.45;4.60;;;12.80;99.90;;;;;;5033730;28;20158;-71
2022/10/13 05:49:15;;;;;;;6.78;4.88;;;12.80;99.90;;;;;;5033203;28;20238;-72
2022/10/13 05:51:46;;;;;;;6.68;4.78;;;12.80;99.90;;;;;;5033605;28;20247;-70
2022/10/13 05:54:20;;;;;;;6.97;5.05;;;12.80;99.90;;;;;;5016189;28;20185;-72
2022/10/13 05:57:03;;;;;;;9.38;5.60;;;12.80;99.90;;;;;;5016307;28;20187;-72
2022/10/13 05:59:33;;;;;;;7.63;4.95;;;12.80;99.90;;;;;;5037214;28;20181;-73
2022/10/13 06:02:00;;;;;;;6.47;4.93;;;12.80;99.90;;;;;;5036914;28;20208;-72
2022/10/13 06:04:34;;;;;;;7.60;5.63;;;12.80;99.90;;;;;;5036931;28;20194;-72
2022/10/13 06:07:02;;;;;;;10.68;5.72;;;12.80;99.90;;;;;;5025205;28;20182;-74
2022/10/13 06:09:36;;;;;;;8.50;4.82;;;12.80;99.90;;;;;;5020848;28;20181;-70
2022/10/13 06:12:06;;;;;;;8.77;5.30;;;12.80;99.90;;;;;;5036753;28;20203;-71
2022/10/13 06:14:32;;;;;;;6.32;4.88;;;12.80;99.90;;;;;;5019279;28;20190;-71
2022/10/13 06:17:00;;;;;;;7.63;5.47;;;12.80;99.90;;;;;;5017191;28;20222;-72
2022/10/13 06:19:25;;;;;;;8.65;5.32;;;12.80;99.90;;;;;;5018505;28;20205;-70
2022/10/13 06:21:51;;;;;;;7.80;5.50;;;12.80;99.90;;;;;;5036965;28;20190;-72
2022/10/13 06:24:17;;;;;;;6.68;5.15;;;12.80;99.90;;;;;;5022212;28;20202;-72
2022/10/13 06:26:44;;;;;;;9.07;5.40;;;12.80;99.90;;;;;;5020428;28;20224;-73
2022/10/13 06:29:10;;;;;;;8.35;5.28;;;12.80;99.90;;;;;;5036759;28;20213;-72
2022/10/13 06:31:38;;;;;;;8.00;4.82;;;12.70;99.90;;;;;;5036096;28;20185;-72
2022/10/13 06:34:03;;;;;;;7.78;5.13;;;12.70;99.90;;;;;;5025615;28;20245;-72
2022/10/13 06:36:30;;;;;;;8.30;5.07;;;12.70;99.90;;;;;;5016591;28;20198;-74
2022/10/13 06:38:55;;;;;;;10.80;5.72;;;12.70;99.90;;;;;;5029208;28;20174;-71
2022/10/13 06:41:21;;;;;;;10.18;5.65;;;12.80;99.90;;;;;;5029584;28;20267;-72
2022/10/13 06:43:47;;;;;;;8.15;5.20;;;12.80;99.90;;;;;;5036387;28;20256;-72
2022/10/13 06:46:13;;;;;;;7.47;5.45;;;12.80;99.90;;;;;;5036431;28;20268;-73
2022/10/13 06:48:38;;;;;;;8.10;5.03;;;12.80;99.90;;;;;;5030650;28;20229;-73
2022/10/13 06:51:09;;;;;;;7.65;6.18;;;12.80;99.90;;;;;;5016528;28;20217;-73
2022/10/13 06:53:35;;;;;;;9.52;6.05;;;12.80;99.90;;;;;;5035456;28;20230;-73
2022/10/13 06:56:03;;;;;;;9.07;6.32;;;12.80;99.90;;;;;;5022373;28;20202;-73
2022/10/13 06:58:29;;;;;;;7.90;6.07;;;12.80;99.90;;;;;;5028150;28;20206;-73
2022/10/13 07:00:55;;;;;;;7.97;6.00;;;12.90;99.90;;;;;;5018101;28;20269;-72
2022/10/13 07:03:24;;;;;;;8.73;5.82;;;13.00;99.90;;;;;;5035758;28;20202;-73
2022/10/13 07:05:52;;;;;;;8.73;6.05;;;12.90;99.90;;;;;;5035892;28;20197;-73
2022/10/13 07:08:19;;;;;;;8.90;5.90;;;13.00;99.90;;;;;;5033258;28;20177;-72
2022/10/13 07:10:47;;;;;;;8.80;5.57;;;13.00;99.90;;;;;;5016469;28;20179;-73
2022/10/13 07:13:13;;;;;;;8.32;5.60;;;13.00;99.90;;;;;;5016653;28;20190;-73
2022/10/13 07:15:41;;;;;;;11.38;6.03;;;13.00;99.90;;;;;;5015910;28;20182;-72
2022/10/13 07:18:09;;;;;;;9.13;6.15;;;13.00;99.90;;;;;;5035486;28;20206;-73
2022/10/13 07:20:35;;;;;;;8.13;5.82;;;13.10;99.90;;;;;;5025857;28;20201;-72
2022/10/13 07:23:03;;;;;;;8.25;5.97;;;13.00;99.90;;;;;;5034134;28;20178;-73
2022/10/13 07:25:33;;;;;;;7.55;5.20;;;13.00;99.90;;;;;;5015869;28;20220;-73
2022/10/13 07:28:01;;;;;;;8.63;5.68;;;13.10;99.90;;;;;;5015697;28;20169;-74
2022/10/13 07:30:27;;;;;;;8.25;5.97;;;13.10;99.90;;;;;;5024134;28;20293;-73
2022/10/13 07:32:53;;;;;;;8.23;5.40;;;13.10;99.90;;;;;;5035040;28;20252;-74
2022/10/13 07:35:21;;;;;;;9.52;5.32;;;13.10;99.90;;;;;;5035528;28;20241;-74
2022/10/13 07:37:48;;;;;;;9.82;6.03;;;13.20;99.90;;;;;;5031122;28;20242;-74
2022/10/13 07:40:14;;;;;;;10.70;6.13;;;13.20;99.90;;;;;;5035221;28;20394;-74
2022/10/13 07:42:40;;;;;;;11.18;6.32;;;13.20;99.90;;;;;;5035414;28;20208;-73
2022/10/13 07:45:06;;;;;;;7.05;5.30;;;13.20;99.90;;;;;;5017939;28;20238;-74
2022/10/13 07:47:34;;;;;;;8.85;5.82;;;13.30;99.90;;;;;;5030087;28;20182;-73
2022/10/13 07:49:59;;;;;;;10.00;5.90;;;13.30;99.90;;;;;;5028699;28;20237;-73
2022/10/13 07:52:25;;;;;;;9.13;6.30;;;13.40;99.90;;;;;;5029788;28;20194;-73
2022/10/13 07:54:51;;;;;;;8.10;5.22;;;13.40;99.90;;;;;;5031750;28;20182;-73
2022/10/13 07:57:19;;;;;;;8.93;5.65;;;13.40;99.90;;;;;;5034840;28;20845;-74
2022/10/13 07:59:45;;;;;;;8.93;6.18;;;13.50;99.90;;;;;;5035186;28;20201;-74
2022/10/13 08:02:10;;;;;;;9.77;6.60;;;13.50;99.90;;;;;;5031949;28;20210;-72
2022/10/13 08:04:36;;;;;;;10.05;6.03;;;13.60;99.90;;;;;;5035793;28;20193;-72
2022/10/13 08:07:03;;;;;;;8.85;5.97;;;13.60;99.90;;;;;;5043932;28;20206;-72
2022/10/13 08:09:29;;;;;;;8.68;5.53;;;13.70;99.90;;;;;;5022078;28;20182;-74
2022/10/13 08:11:54;;;;;;;8.32;5.70;;;13.80;99.90;;;;;;5015179;28;20179;-73
2022/10/13 08:14:20;;;;;;;10.77;6.03;;;13.80;99.90;;;;;;5017245;28;20198;-75
2022/10/13 08:16:46;;;;;;;8.32;5.90;;;13.90;99.90;;;;;;5015385;28;20320;-73
2022/10/13 08:19:14;;;;;;;7.43;6.07;;;13.90;99.90;;;;;;5015067;28;20213;-72
2022/10/13 08:21:41;;;;;;;7.40;5.47;;;14.00;99.90;;;;;;5017155;28;20199;-73
2022/10/13 08:24:12;;;;;;;7.82;5.40;;;14.00;99.90;;;;;;5034671;28;20273;-72
2022/10/13 08:26:38;;;;;;;10.88;5.95;;;14.10;99.90;;;;;;5034475;28;20201;-74
2022/10/13 08:29:08;;;;;;;7.07;5.22;;;14.10;99.90;;;;;;5033211;28;20194;-73
2022/10/13 08:31:36;;;;;;;7.90;5.47;;;14.20;99.90;;;;;;5014820;28;20174;-73
2022/10/13 08:34:04;;;;;;;10.77;5.28;;;14.30;99.90;;;;;;5014649;28;20246;-74
2022/10/13 08:36:34;;;;;;;13.23;5.28;;;14.30;99.90;;;;;;5014532;28;20202;-71
2022/10/13 08:39:03;;;;;;;7.43;5.30;;;14.40;99.90;;;;;;5014921;28;20178;-71
2022/10/13 08:41:37;;;;;;;8.30;5.82;;;14.50;99.90;;;;;;5017180;28;20261;-73
2022/10/13 08:44:29;;;;;;;7.18;5.40;;;14.60;99.90;;;;;;5015759;28;20264;-72
2022/10/13 08:47:19;;;;;;;8.73;5.22;;;14.70;99.90;;;;;;5014863;28;20182;-73
2022/10/13 08:49:45;;;;;;;9.63;5.28;;;14.80;99.90;;;;;;5034218;28;20178;-72
2022/10/13 08:52:20;;;;;;;9.65;5.43;;;14.90;99.90;;;;;;5034068;28;20204;-73
2022/10/13 08:54:46;;;;;;;9.70;5.30;;;14.90;99.90;;;;;;5028010;28;20189;-73
2022/10/13 08:57:12;;;;;;;7.80;5.13;;;15.00;99.90;;;;;;5014036;28;20294;-72
2022/10/13 08:59:38;;;;;;;8.00;4.82;;;15.10;99.90;;;;;;5027433;28;20198;-73
2022/10/13 09:02:13;;;;;;;8.23;5.55;;;15.20;99.90;;;;;;5028446;28;20260;-73
2022/10/13 09:04:42;;;;;;;11.90;6.40;;;15.30;99.90;;;;;;5014387;28;20190;-73
2022/10/13 09:07:08;;;;;;;10.55;5.85;;;15.40;99.90;;;;;;5031548;28;20198;-74
2022/10/13 09:09:37;;;;;;;10.23;5.97;;;15.50;99.90;;;;;;5034127;28;20181;-74
2022/10/13 09:12:03;;;;;;;8.75;6.15;;;15.60;99.90;;;;;;5044560;28;20173;-73
2022/10/13 09:14:32;;;;;;;9.25;5.75;;;15.70;99.90;;;;;;5033983;28;20173;-74
2022/10/13 09:17:27;;;;;;;9.23;5.68;;;15.70;99.90;;;;;;5034076;28;20178;-73
2022/10/13 09:20:26;;;;;;;8.73;5.53;;;15.90;99.90;;;;;;5010174;28;20187;-74
2022/10/13 09:23:21;;;;;;;9.18;5.68;;;15.90;99.90;;;;;;5030943;28;20213;-73
2022/10/13 09:26:05;;;;;;;11.60;5.65;;;16.00;99.90;;;;;;5033785;28;20189;-73
2022/10/13 09:28:38;;;;;;;9.35;5.93;;;16.10;99.90;;;;;;5033029;28;20182;-73
2022/10/13 09:31:24;;;;;;;8.10;5.22;;;16.10;99.90;;;;;;5035946;28;20212;-73
2022/10/13 09:33:58;;;;;;;7.85;4.90;;;16.20;99.90;;;;;;5018184;28;20175;-73
2022/10/13 09:36:25;;;;;;;10.13;5.53;;;16.20;99.90;;;;;;5033289;28;20194;-73
2022/10/13 09:39:18;;;;;;;10.40;5.38;;;16.30;99.90;;;;;;5037354;28;20194;-73
2022/10/13 09:41:46;;;;;;;7.95;5.18;;;16.30;99.90;;;;;;5037774;28;20174;-74
2022/10/13 09:44:21;;;;;;;8.30;4.93;;;16.30;99.90;;;;;;5037660;28;20198;-73
2022/10/13 09:46:56;;;;;;;7.10;4.72;;;16.40;99.90;;;;;;5037349;28;20204;-73
2022/10/13 09:49:34;;;;;;;7.40;4.88;;;16.40;99.90;;;;;;5035116;28;20383;-73
2022/10/13 09:52:13;;;;;;;6.35;4.25;;;16.50;99.90;;;;;;5017807;28;20167;-73
2022/10/13 09:55:02;;;;;;;8.88;4.93;;;16.50;99.90;;;;;;5018225;28;20186;-73
2022/10/13 09:57:54;;;;;;;8.32;4.60;;;16.60;99.90;;;;;;5023397;28;20185;-73
2022/10/13 10:00:22;;;;;;;7.80;5.35;;;16.60;99.90;;;;;;5035285;28;20321;-73
2022/10/13 10:03:11;;;;;;;7.10;4.80;;;16.70;99.90;;;;;;5034050;28;20221;-73
2022/10/13 10:05:50;;;;;;;8.73;4.85;;;16.80;99.90;;;;;;5034277;28;20190;-73
2022/10/13 10:08:27;;;;;;;5.18;4.40;;;16.90;99.90;;;;;;5028734;28;20194;-73
2022/10/13 10:10:54;;;;;;;7.22;4.68;;;16.90;99.90;;;;;;5019949;28;20200;-73
2022/10/13 10:13:21;;;;;;;7.93;4.20;;;17.00;99.90;;;;;;5039169;28;20272;-73
2022/10/13 10:16:08;;;;;;;7.15;4.35;;;17.00;99.90;;;;;;5037852;28;20178;-73
2022/10/13 10:18:48;;;;;;;8.20;4.20;;;17.10;99.90;;;;;;5030293;28;20208;-73
2022/10/13 10:21:23;;;;;;;6.60;4.20;;;17.20;99.90;;;;;;5001290;28;20178;-73
2022/10/13 10:23:58;;;;;;;5.95;4.20;;;17.30;99.90;;;;;;5017160;28;20217;-74
2022/10/13 10:26:50;;;;;;;5.80;4.30;;;17.40;99.90;;;;;;5016689;28;20525;-72
2022/10/13 10:29:40;;;;;;;7.72;4.40;;;17.50;99.90;;;;;;5029586;28;20181;-73
2022/10/13 10:32:20;;;;;;;6.40;4.03;;;17.50;99.90;;;;;;5029785;28;20214;-73
2022/10/13 10:35:25;;;;;;;6.00;4.10;;;17.70;99.90;;;;;;5020692;28;20178;-72
2022/10/13 10:38:01;;;;;;;6.07;3.58;;;17.70;99.90;;;;;;5029328;28;20252;-73
2022/10/13 10:40:58;;;;;;;5.30;3.50;;;17.80;99.90;;;;;;5036385;28;20197;-74
2022/10/13 10:43:39;;;;;;;5.43;3.67;;;18.00;99.90;;;;;;5018622;28;20213;-73
2022/10/13 10:46:15;;;;;;;5.47;3.50;;;18.00;99.90;;;;;;5017384;28;20166;-73
2022/10/13 10:48:44;;;;;;;5.65;3.88;;;18.10;99.90;;;;;;5020155;28;20167;-73
2022/10/13 10:51:13;;;;;;;5.50;3.90;;;18.10;99.90;;;;;;5035969;28;20174;-74
2022/10/13 10:53:59;;;;;;;8.57;3.95;;;18.10;99.90;;;;;;5037288;28;20176;-74
2022/10/13 10:56:33;;;;;;;5.25;3.50;;;18.20;99.90;;;;;;5036558;28;20166;-74
2022/10/13 10:59:26;;;;;;;5.53;3.83;;;18.20;99.90;;;;;;5036007;28;20176;-72
2022/10/13 11:02:01;;;;;;;6.13;3.50;;;18.30;99.90;;;;;;5017046;28;20213;-74
2022/10/13 11:04:47;;;;;;;5.82;3.50;;;18.30;99.90;;;;;;5034587;28;20413;-74
2022/10/13 11:07:23;;;;;;;4.85;3.42;;;18.30;99.90;;;;;;5023748;28;20186;-73
2022/10/13 11:09:51;;;;;;;5.65;3.42;;;18.40;99.90;;;;;;5021395;28;20283;-74
2022/10/13 11:12:22;;;;;;;5.60;3.30;;;18.40;99.90;;;;;;5036794;28;20174;-73
2022/10/13 11:15:02;;;;;;;5.75;3.53;;;18.50;99.90;;;;;;5031218;28;20209;-73
2022/10/13 11:17:41;;;;;;;3.90;2.72;;;18.50;99.90;;;;;;5036189;28;20194;-74
2022/10/13 11:20:19;;;;;;;4.45;3.28;;;18.60;99.90;;;;;;5038927;28;20177;-74
2022/10/13 11:23:11;;;;;;;7.18;3.45;;;18.60;99.90;;;;;;5036053;28;20272;-73
2022/10/13 11:25:43;;;;;;;6.25;3.83;;;18.60;99.90;;;;;;5028495;28;20201;-73
2022/10/13 11:28:21;;;;;;;5.25;3.42;;;18.60;99.90;;;;;;5035856;28;20174;-76
2022/10/13 11:31:13;;;;;;;8.98;4.00;;;18.60;99.90;;;;;;5034113;28;20262;-74
2022/10/13 11:33:38;;;;;;;4.90;3.33;;;18.70;99.90;;;;;;5030580;28;20202;-73
2022/10/13 11:36:45;;;;;;;5.20;3.38;;;18.70;99.90;;;;;;5037112;28;20170;-75
2022/10/13 11:39:28;;;;;;;4.43;3.03;;;18.70;99.90;;;;;;5055974;28;20181;-75
2022/10/13 11:42:18;;;;;;;8.93;3.67;;;18.80;99.90;;;;;;5035446;28;20205;-74
2022/10/13 11:45:09;;;;;;;5.13;3.42;;;18.80;99.90;;;;;;5016577;28;20212;-76
2022/10/13 11:48:15;;;;;;;6.35;3.50;;;18.90;99.90;;;;;;5015929;28;20241;-75
2022/10/13 11:51:00;;;;;;;7.57;3.67;;;18.90;99.90;;;;;;5015870;28;20179;-75
2022/10/13 11:54:04;;;;;;;4.95;3.78;;;18.90;99.90;;;;;;5017204;28;20190;-74
2022/10/13 11:56:52;;;;;;;7.32;3.70;;;19.00;99.90;;;;;;5035186;28;20208;-74
2022/10/13 11:59:36;;;;;;;4.95;3.47;;;19.00;99.90;;;;;;5018530;28;20269;-74
2022/10/13 12:02:15;;;;;;;5.95;3.47;;;19.00;99.90;;;;;;5025261;28;20220;-72
2022/10/13 12:04:42;;;;;;;6.80;3.67;;;18.90;99.90;;;;;;5028386;28;20210;-75
2022/10/13 12:07:16;;;;;;;8.02;3.25;;;18.90;99.90;;;;;;5014986;28;20166;-72
2022/10/13 12:09:57;;;;;;;4.78;3.20;;;18.80;99.90;;;;;;5029541;28;20174;-73
2022/10/13 12:12:24;;;;;;;4.97;2.90;;;18.90;99.90;;;;;;5034913;28;20263;-74
2022/10/13 12:14:52;;;;;;;6.93;3.40;;;18.80;99.90;;;;;;5033931;28;20201;-76
2022/10/13 12:17:24;;;;;;;6.40;3.08;;;18.80;99.90;;;;;;5019414;28;20178;-76
2022/10/13 12:20:21;;;;;;;7.35;3.95;;;18.80;99.90;;;;;;5030973;28;20280;-73
2022/10/13 12:22:48;;;;;;;7.15;3.63;;;18.80;99.90;;;;;;5024651;28;20178;-72
2022/10/13 12:25:25;;;;;;;6.32;3.55;;;18.70;99.90;;;;;;5014800;28;20229;-76
2022/10/13 12:27:57;;;;;;;6.32;3.65;;;18.70;99.90;;;;;;5014753;28;20206;-75
2022/10/13 12:30:39;;;;;;;6.25;3.47;;;18.60;99.90;;;;;;5030775;28;20178;-74
2022/10/13 12:33:25;;;;;;;5.32;3.20;;;18.60;99.90;;;;;;5028178;28;20171;-74
2022/10/13 12:35:53;;;;;;;5.53;3.22;;;18.60;99.90;;;;;;5014842;28;20238;-74
2022/10/13 12:38:27;;;;;;;4.53;3.55;;;18.50;99.90;;;;;;5014892;28;20183;-74
2022/10/13 12:40:55;;;;;;;5.03;3.20;;;18.50;99.90;;;;;;5014374;28;20175;-75
2022/10/13 12:43:24;;;;;;;5.57;3.60;;;18.40;99.90;;;;;;5029636;28;20212;-72
2022/10/13 12:45:50;;;;;;;6.13;3.63;;;18.40;99.90;;;;;;5034285;28;20212;-74
2022/10/13 12:48:37;;;;;;;8.10;3.50;;;18.40;99.90;;;;;;5021114;28;20166;-74
2022/10/13 12:51:17;;;;;;;6.32;3.92;;;18.40;99.90;;;;;;5034346;28;20251;-74
2022/10/13 12:53:54;;;;;;;4.75;2.70;;;18.40;99.90;;;;;;5034249;28;20182;-74
2022/10/13 12:56:31;;;;;;;6.38;3.42;;;18.40;99.90;;;;;;5034131;28;20197;-73
2022/10/13 12:58:57;;;;;;;5.78;3.90;;;18.40;99.90;;;;;;5051080;28;20352;-75
2022/10/13 13:01:27;;;;;;;7.13;3.55;;;18.40;99.90;;;;;;5039037;28;20327;-74
2022/10/13 13:04:21;;;;;;;5.72;3.95;;;18.40;99.90;;;;;;5017325;28;20202;-75
2022/10/13 13:07:18;;;;;;;5.97;3.50;;;18.40;99.90;;;;;;5029576;28;20197;-74
2022/10/13 13:10:02;;;;;;;6.47;3.90;;;18.30;99.90;;;;;;5027894;28;20179;-74
2022/10/13 13:12:30;;;;;;;7.78;4.05;;;18.20;99.90;;;;;;5020244;28;21823;-74